sensor_id;sensor_type;location;lat;lon;timestamp;pressure;altitude;pressure_sealevel;temperature;humidity
27958;BME280;15295;42.658;23.374;2024-02-21T00:00:49;95230.13;;;11.13;51.82
27958;BME280;15295;42.658;23.374;2024-02-21T00:03:15;95223.50;;;11.14;51.86
27958;BME280;15295;42.658;23.374;2024-02-21T00:05:40;95228.59;;;11.19;51.87
27958;BME280;15295;42.658;23.374;2024-02-21T00:08:06;95229.38;;;11.23;51.88
27958;BME280;15295;42.658;23.374;2024-02-21T00:10:31;95225.13;;;11.29;51.63
27958;BME280;15295;42.658;23.374;2024-02-21T00:12:58;95218.06;;;11.28;51.61
27958;BME280;15295;42.658;23.374;2024-02-21T00:15:26;95220.81;;;11.24;51.65
27958;BME280;15295;42.658;23.374;2024-02-21T00:17:52;95221.59;;;11.32;51.31
27958;BME280;15295;42.658;23.374;2024-02-21T00:20:17;95220.81;;;11.28;51.41
27958;BME280;15295;42.658;23.374;2024-02-21T00:22:44;95209.88;;;11.24;51.16
27958;BME280;15295;42.658;23.374;2024-02-21T00:25:09;95224.72;;;11.34;51.32
27958;BME280;15295;42.658;23.374;2024-02-21T00:27:35;95216.16;;;11.35;51.28
27958;BME280;15295;42.658;23.374;2024-02-21T00:30:01;95218.50;;;11.37;51.05
27958;BME280;15295;42.658;23.374;2024-02-21T00:32:27;95214.19;;;11.29;51.38
27958;BME280;15295;42.658;23.374;2024-02-21T00:34:52;95210.69;;;11.35;51.22
27958;BME280;15295;42.658;23.374;2024-02-21T00:37:18;95221.59;;;11.32;51.15
27958;BME280;15295;42.658;23.374;2024-02-21T00:39:43;95228.66;;;11.33;51.22
27958;BME280;15295;42.658;23.374;2024-02-21T00:42:09;95219.25;;;11.30;51.12
27958;BME280;15295;42.658;23.374;2024-02-21T00:44:34;95209.88;;;11.24;51.31
27958;BME280;15295;42.658;23.374;2024-02-21T00:47:00;95212.19;;;11.22;51.43
27958;BME280;15295;42.658;23.374;2024-02-21T00:49:25;95211.00;;;11.20;51.53
27958;BME280;15295;42.658;23.374;2024-02-21T00:51:51;95205.94;;;11.18;51.56
27958;BME280;15295;42.658;23.374;2024-02-21T00:54:16;95199.66;;;11.14;51.50
27958;BME280;15295;42.658;23.374;2024-02-21T00:56:42;95212.19;;;11.22;51.45
27958;BME280;15295;42.658;23.374;2024-02-21T00:59:08;95210.63;;;11.21;51.53
27958;BME280;15295;42.658;23.374;2024-02-21T01:01:33;95205.94;;;11.18;51.52
27958;BME280;15295;42.658;23.374;2024-02-21T01:04:03;95195.75;;;11.12;51.67
27958;BME280;15295;42.658;23.374;2024-02-21T01:06:29;95199.28;;;11.16;51.65
27958;BME280;15295;42.658;23.374;2024-02-21T01:08:54;95189.09;;;11.13;51.70
27958;BME280;15295;42.658;23.374;2024-02-21T01:11:20;95195.75;;;11.15;51.73
27958;BME280;15295;42.658;23.374;2024-02-21T01:13:45;95188.69;;;11.14;51.76
27958;BME280;15295;42.658;23.374;2024-02-21T01:16:11;95193.41;;;11.17;51.63
27958;BME280;15295;42.658;23.374;2024-02-21T01:18:37;95187.56;;;11.19;51.66
27958;BME280;15295;42.658;23.374;2024-02-21T01:21:08;95184.44;;;11.20;51.51
27958;BME280;15295;42.658;23.374;2024-02-21T01:23:36;95180.91;;;11.16;51.61
27958;BME280;15295;42.658;23.374;2024-02-21T01:26:03;95168.78;;;11.21;51.66
27958;BME280;15295;42.658;23.374;2024-02-21T01:28:29;95172.75;;;11.27;51.70
27958;BME280;15295;42.658;23.374;2024-02-21T01:30:56;95178.59;;;11.25;51.48
27958;BME280;15295;42.658;23.374;2024-02-21T01:33:21;95174.66;;;11.23;51.41
27958;BME280;15295;42.658;23.374;2024-02-21T01:35:47;95171.16;;;11.22;51.44
27958;BME280;15295;42.658;23.374;2024-02-21T01:38:13;95174.69;;;11.26;51.37
27958;BME280;15295;42.658;23.374;2024-02-21T01:40:38;95169.22;;;11.26;51.39
27958;BME280;15295;42.658;23.374;2024-02-21T01:43:15;95174.31;;;11.35;51.39
27958;BME280;15295;42.658;23.374;2024-02-21T01:45:41;95171.19;;;11.36;50.99
27958;BME280;15295;42.658;23.374;2024-02-21T01:48:07;95163.78;;;11.40;51.00
27958;BME280;15295;42.658;23.374;2024-02-21T01:50:33;95165.31;;;11.38;50.85
27958;BME280;15295;42.658;23.374;2024-02-21T01:52:59;95164.94;;;11.43;50.86
27958;BME280;15295;42.658;23.374;2024-02-21T01:55:26;95166.53;;;11.44;50.75
27958;BME280;15295;42.658;23.374;2024-02-21T01:57:54;95150.47;;;11.35;50.94
27958;BME280;15295;42.658;23.374;2024-02-21T02:00:19;95156.72;;;11.32;50.81
27958;BME280;15295;42.658;23.374;2024-02-21T02:02:45;95161.81;;;11.41;50.74
27958;BME280;15295;42.658;23.374;2024-02-21T02:05:11;95153.22;;;11.39;50.67
27958;BME280;15295;42.658;23.374;2024-02-21T02:07:37;95166.53;;;11.44;50.61
27958;BME280;15295;42.658;23.374;2024-02-21T02:10:03;95164.19;;;11.46;50.39
27958;BME280;15295;42.658;23.374;2024-02-21T02:12:28;95166.50;;;11.40;50.50
27958;BME280;15295;42.658;23.374;2024-02-21T02:14:58;95163.00;;;11.43;50.16
27958;BME280;15295;42.658;23.374;2024-02-21T02:17:24;95160.25;;;11.40;50.23
27958;BME280;15295;42.658;23.374;2024-02-21T02:19:50;95167.69;;;11.43;50.20
27958;BME280;15295;42.658;23.374;2024-02-21T02:22:21;95155.56;;;11.47;49.85
27958;BME280;15295;42.658;23.374;2024-02-21T02:24:48;95155.19;;;11.45;49.94
27958;BME280;15295;42.658;23.374;2024-02-21T02:27:14;95158.72;;;11.46;49.83
27958;BME280;15295;42.658;23.374;2024-02-21T02:29:39;95153.59;;;11.44;49.85
27958;BME280;15295;42.658;23.374;2024-02-21T02:32:05;95148.13;;;11.41;49.92
27958;BME280;15295;42.658;23.374;2024-02-21T02:34:31;95147.34;;;11.37;49.99
27958;BME280;15295;42.658;23.374;2024-02-21T02:36:56;95145.78;;;11.32;50.10
27958;BME280;15295;42.658;23.374;2024-02-21T02:39:22;95151.25;;;11.36;50.12
27958;BME280;15295;42.658;23.374;2024-02-21T02:41:47;95147.34;;;11.37;50.15
27958;BME280;15295;42.658;23.374;2024-02-21T02:44:13;95142.66;;;11.37;50.04
27958;BME280;15295;42.658;23.374;2024-02-21T02:46:42;95144.63;;;11.37;50.10
27958;BME280;15295;42.658;23.374;2024-02-21T02:49:08;95150.88;;;11.37;50.23
27958;BME280;15295;42.658;23.374;2024-02-21T02:51:33;95148.91;;;11.34;50.40
27958;BME280;15295;42.658;23.374;2024-02-21T02:53:59;95153.63;;;11.41;50.04
27958;BME280;15295;42.658;23.374;2024-02-21T02:56:25;95154.38;;;11.38;50.13
27958;BME280;15295;42.658;23.374;2024-02-21T02:58:50;95151.25;;;11.43;50.07
27958;BME280;15295;42.658;23.374;2024-02-21T03:01:16;95159.88;;;11.48;49.97
27958;BME280;15295;42.658;23.374;2024-02-21T03:03:41;95154.41;;;11.52;50.03
27958;BME280;15295;42.658;23.374;2024-02-21T03:06:09;95150.50;;;11.53;50.01
27958;BME280;15295;42.658;23.374;2024-02-21T03:08:34;95164.59;;;11.62;49.90
27958;BME280;15295;42.658;23.374;2024-02-21T03:11:00;95155.22;;;11.63;49.75
27958;BME280;15295;42.658;23.374;2024-02-21T03:13:26;95155.19;;;11.59;49.98
27958;BME280;15295;42.658;23.374;2024-02-21T03:15:51;95163.44;;;11.67;49.83
27958;BME280;15295;42.658;23.374;2024-02-21T03:18:17;95159.13;;;11.62;49.70
27958;BME280;15295;42.658;23.374;2024-02-21T03:20:42;95171.28;;;11.68;49.69
27958;BME280;15295;42.658;23.374;2024-02-21T03:23:08;95167.31;;;11.65;49.62
27958;BME280;15295;42.658;23.374;2024-02-21T03:25:33;95161.44;;;11.63;49.67
27958;BME280;15295;42.658;23.374;2024-02-21T03:28:01;95166.94;;;11.60;49.69
27958;BME280;15295;42.658;23.374;2024-02-21T03:30:27;95168.09;;;11.55;49.74
27958;BME280;15295;42.658;23.374;2024-02-21T03:32:52;95170.81;;;11.59;49.82
27958;BME280;15295;42.658;23.374;2024-02-21T03:35:18;95175.94;;;11.64;49.81
27958;BME280;15295;42.658;23.374;2024-02-21T03:37:45;95168.09;;;11.55;49.61
27958;BME280;15295;42.658;23.374;2024-02-21T03:40:10;95168.88;;;11.56;49.51
27958;BME280;15295;42.658;23.374;2024-02-21T03:42:37;95176.31;;;11.52;49.67
27958;BME280;15295;42.658;23.374;2024-02-21T03:45:03;95178.25;;;11.55;49.67
27958;BME280;15295;42.658;23.374;2024-02-21T03:47:29;95181.38;;;11.53;49.63
27958;BME280;15295;42.658;23.374;2024-02-21T03:49:54;95184.50;;;11.48;49.61
27958;BME280;15295;42.658;23.374;2024-02-21T03:52:20;95178.63;;;11.43;49.86
27958;BME280;15295;42.658;23.374;2024-02-21T03:54:45;95190.00;;;11.52;49.76
27958;BME280;15295;42.658;23.374;2024-02-21T03:57:12;95174.75;;;11.47;49.78
27958;BME280;15295;42.658;23.374;2024-02-21T03:59:37;95181.00;;;11.51;49.73
27958;BME280;15295;42.658;23.374;2024-02-21T04:02:05;95185.72;;;11.54;49.64
27958;BME280;15295;42.658;23.374;2024-02-21T04:04:34;95176.31;;;11.52;49.68
27958;BME280;15295;42.658;23.374;2024-02-21T04:07:02;95181.00;;;11.55;49.78
27958;BME280;15295;42.658;23.374;2024-02-21T04:09:32;95168.47;;;11.47;49.96
27958;BME280;15295;42.658;23.374;2024-02-21T04:11:58;95166.53;;;11.51;49.83
27958;BME280;15295;42.658;23.374;2024-02-21T04:14:24;95176.69;;;11.57;49.62
27958;BME280;15295;42.658;23.374;2024-02-21T04:16:49;95175.13;;;11.53;49.66
27958;BME280;15295;42.658;23.374;2024-02-21T04:19:17;95175.91;;;11.50;49.69
27958;BME280;15295;42.658;23.374;2024-02-21T04:21:42;95174.75;;;11.54;49.70
27958;BME280;15295;42.658;23.374;2024-02-21T04:24:07;95173.19;;;11.53;49.35
27958;BME280;15295;42.658;23.374;2024-02-21T04:26:33;95176.31;;;11.55;49.53
27958;BME280;15295;42.658;23.374;2024-02-21T04:28:59;95174.75;;;11.54;49.28
27958;BME280;15295;42.658;23.374;2024-02-21T04:31:24;95176.28;;;11.48;49.59
27958;BME280;15295;42.658;23.374;2024-02-21T04:33:50;95172.75;;;11.44;49.69
27958;BME280;15295;42.658;23.374;2024-02-21T04:36:15;95176.69;;;11.50;49.54
27958;BME280;15295;42.658;23.374;2024-02-21T04:38:41;95169.28;;;11.54;49.43
27958;BME280;15295;42.658;23.374;2024-02-21T04:41:06;95169.25;;;11.51;49.29
27958;BME280;15295;42.658;23.374;2024-02-21T04:43:33;95171.22;;;11.43;49.45
27958;BME280;15295;42.658;23.374;2024-02-21T04:45:58;95177.44;;;11.37;49.54
27958;BME280;15295;42.658;23.374;2024-02-21T04:48:24;95176.66;;;11.33;49.72
27958;BME280;15295;42.658;23.374;2024-02-21T04:50:49;95169.22;;;11.33;49.71
27958;BME280;15295;42.658;23.374;2024-02-21T04:53:15;95171.19;;;11.36;49.70
27958;BME280;15295;42.658;23.374;2024-02-21T04:55:41;95180.59;;;11.39;49.61
27958;BME280;15295;42.658;23.374;2024-02-21T04:58:07;95174.28;;;11.31;49.67
27958;BME280;15295;42.658;23.374;2024-02-21T05:00:33;95177.44;;;11.30;49.71
27958;BME280;15295;42.658;23.374;2024-02-21T05:02:59;95173.13;;;11.29;49.68
27958;BME280;15295;42.658;23.374;2024-02-21T05:05:24;95161.38;;;11.18;49.78
27958;BME280;15295;42.658;23.374;2024-02-21T05:07:50;95179.38;;;11.29;49.70
27958;BME280;15295;42.658;23.374;2024-02-21T05:10:16;95179.00;;;11.31;49.74
27958;BME280;15295;42.658;23.374;2024-02-21T05:12:43;95178.63;;;11.32;49.77
27958;BME280;15295;42.658;23.374;2024-02-21T05:15:08;95185.25;;;11.38;49.60
27958;BME280;15295;42.658;23.374;2024-02-21T05:17:34;95184.88;;;11.36;49.64
27958;BME280;15295;42.658;23.374;2024-02-21T05:19:59;95193.47;;;11.42;49.71
27958;BME280;15295;42.658;23.374;2024-02-21T05:22:25;95174.69;;;11.26;49.76
27958;BME280;15295;42.658;23.374;2024-02-21T05:24:56;95186.44;;;11.34;49.82
27958;BME280;15295;42.658;23.374;2024-02-21T05:27:24;95183.28;;;11.32;49.83
27958;BME280;15295;42.658;23.374;2024-02-21T05:29:53;95193.09;;;11.36;49.85
27958;BME280;15295;42.658;23.374;2024-02-21T05:32:19;95192.28;;;11.36;50.01
27958;BME280;15295;42.658;23.374;2024-02-21T05:34:44;95192.69;;;11.38;49.85
27958;BME280;15295;42.658;23.374;2024-02-21T05:37:13;95201.69;;;11.42;49.77
27958;BME280;15295;42.658;23.374;2024-02-21T05:39:39;95197.78;;;11.43;49.57
27958;BME280;15295;42.658;23.374;2024-02-21T05:42:04;95202.09;;;11.44;49.57
27958;BME280;15295;42.658;23.374;2024-02-21T05:44:30;95204.06;;;11.47;49.77
27958;BME280;15295;42.658;23.374;2024-02-21T05:46:55;95197.41;;;11.48;49.76
27958;BME280;15295;42.658;23.374;2024-02-21T05:49:21;95199.00;;;11.56;49.82
27958;BME280;15295;42.658;23.374;2024-02-21T05:51:48;95209.19;;;11.62;49.94
27958;BME280;15295;42.658;23.374;2024-02-21T05:54:14;95210.00;;;11.67;49.76
27958;BME280;15295;42.658;23.374;2024-02-21T05:56:39;95208.03;;;11.67;49.80
27958;BME280;15295;42.658;23.374;2024-02-21T05:59:05;95217.44;;;11.73;49.72
27958;BME280;15295;42.658;23.374;2024-02-21T06:01:30;95210.81;;;11.78;49.65
27958;BME280;15295;42.658;23.374;2024-02-21T06:03:56;95212.38;;;11.82;49.45
27958;BME280;15295;42.658;23.374;2024-02-21T06:06:21;95217.06;;;11.92;49.58
27958;BME280;15295;42.658;23.374;2024-02-21T06:08:47;95216.31;;;11.95;49.44
27958;BME280;15295;42.658;23.374;2024-02-21T06:11:13;95201.00;;;11.87;49.23
27958;BME280;15295;42.658;23.374;2024-02-21T06:13:43;95220.59;;;12.03;48.94
27958;BME280;15295;42.658;23.374;2024-02-21T06:16:08;95235.88;;;12.11;48.79
27958;BME280;15295;42.658;23.374;2024-02-21T06:18:35;95228.03;;;12.10;48.32
27958;BME280;15295;42.658;23.374;2024-02-21T06:21:09;95195.56;;;11.91;48.11
27958;BME280;15295;42.658;23.374;2024-02-21T06:23:42;95236.63;;;12.19;47.85
27958;BME280;15295;42.658;23.374;2024-02-21T06:26:09;95202.22;;;11.97;47.83
27958;BME280;15295;42.658;23.374;2024-02-21T06:28:36;95210.81;;;12.02;47.74
27958;BME280;15295;42.658;23.374;2024-02-21T06:31:11;95247.63;;;12.29;47.36
27958;BME280;15295;42.658;23.374;2024-02-21T06:33:37;95225.69;;;12.15;47.51
27958;BME280;15295;42.658;23.374;2024-02-21T06:36:03;95212.41;;;12.21;47.33
27958;BME280;15295;42.658;23.374;2024-02-21T06:38:32;95244.50;;;12.49;47.32
27958;BME280;15295;42.658;23.374;2024-02-21T06:41:06;95243.69;;;12.52;47.00
27958;BME280;15295;42.658;23.374;2024-02-21T06:43:40;95221.75;;;12.41;46.72
27958;BME280;15295;42.658;23.374;2024-02-21T06:46:06;95218.22;;;12.40;46.90
27958;BME280;15295;42.658;23.374;2024-02-21T06:48:33;95230.38;;;12.57;46.80
27958;BME280;15295;42.658;23.374;2024-02-21T06:51:03;95253.47;;;12.74;46.83
27958;BME280;15295;42.658;23.374;2024-02-21T06:53:33;95258.53;;;12.75;47.15
27958;BME280;15295;42.658;23.374;2024-02-21T06:56:03;95237.78;;;12.71;46.96
27958;BME280;15295;42.658;23.374;2024-02-21T06:58:31;95244.03;;;12.75;46.90
27958;BME280;15295;42.658;23.374;2024-02-21T07:00:56;95241.31;;;12.78;46.75
27958;BME280;15295;42.658;23.374;2024-02-21T07:03:26;95267.13;;;13.05;46.65
27958;BME280;15295;42.658;23.374;2024-02-21T07:05:53;95260.84;;;13.05;46.22
27958;BME280;15295;42.658;23.374;2024-02-21T07:08:18;95223.66;;;12.83;45.50
27958;BME280;15295;42.658;23.374;2024-02-21T07:10:45;95226.41;;;12.79;45.83
27958;BME280;15295;42.658;23.374;2024-02-21T07:13:13;95242.06;;;12.89;45.52
27958;BME280;15295;42.658;23.374;2024-02-21T07:15:40;95264.38;;;13.09;45.43
27958;BME280;15295;42.658;23.374;2024-02-21T07:18:06;95269.06;;;13.12;45.48
27958;BME280;15295;42.658;23.374;2024-02-21T07:20:32;95267.50;;;13.14;45.35
27958;BME280;15295;42.658;23.374;2024-02-21T07:22:59;95268.69;;;13.10;45.72
27958;BME280;15295;42.658;23.374;2024-02-21T07:25:25;95264.34;;;13.16;45.50
27958;BME280;15295;42.658;23.374;2024-02-21T07:27:50;95273.34;;;13.27;45.35
27958;BME280;15295;42.658;23.374;2024-02-21T07:30:16;95267.84;;;13.27;45.34
27958;BME280;15295;42.658;23.374;2024-02-21T07:32:41;95270.56;;;13.31;45.16
27958;BME280;15295;42.658;23.374;2024-02-21T07:35:07;95260.78;;;13.33;45.03
27958;BME280;15295;42.658;23.374;2024-02-21T07:37:36;95279.19;;;13.36;44.89
27958;BME280;15295;42.658;23.374;2024-02-21T07:40:05;95283.53;;;13.34;44.92
27958;BME280;15295;42.658;23.374;2024-02-21T07:42:31;95283.13;;;13.35;44.70
27958;BME280;15295;42.658;23.374;2024-02-21T07:44:57;95249.03;;;13.22;45.01
27958;BME280;15295;42.658;23.374;2024-02-21T07:47:22;95267.00;;;13.44;44.75
27958;BME280;15295;42.658;23.374;2024-02-21T07:49:48;95275.59;;;13.53;44.53
27958;BME280;15295;42.658;23.374;2024-02-21T07:52:16;95271.66;;;13.58;44.58
27958;BME280;15295;42.658;23.374;2024-02-21T07:54:41;95265.75;;;13.59;44.33
27958;BME280;15295;42.658;23.374;2024-02-21T07:57:07;95265.31;;;13.68;44.52
27958;BME280;15295;42.658;23.374;2024-02-21T07:59:33;95255.88;;;13.69;44.23
27958;BME280;15295;42.658;23.374;2024-02-21T08:01:59;95270.00;;;13.74;44.09
27958;BME280;15295;42.658;23.374;2024-02-21T08:04:25;95265.31;;;13.71;44.16
27958;BME280;15295;42.658;23.374;2024-02-21T08:06:54;95255.03;;;13.82;43.94
27958;BME280;15295;42.658;23.374;2024-02-21T08:09:27;95259.38;;;13.83;43.78
27958;BME280;15295;42.658;23.374;2024-02-21T08:11:56;95251.16;;;13.73;43.62
27958;BME280;15295;42.658;23.374;2024-02-21T08:14:23;95262.94;;;13.77;43.63
27958;BME280;15295;42.658;23.374;2024-02-21T08:16:50;95268.81;;;13.75;43.75
27958;BME280;15295;42.658;23.374;2024-02-21T08:19:16;95257.81;;;13.75;43.69
27958;BME280;15295;42.658;23.374;2024-02-21T08:21:43;95271.50;;;13.89;43.62
27958;BME280;15295;42.658;23.374;2024-02-21T08:24:14;95265.19;;;13.92;43.43
27958;BME280;15295;42.658;23.374;2024-02-21T08:26:44;95262.75;;;14.05;43.38
27958;BME280;15295;42.658;23.374;2024-02-21T08:29:12;95259.53;;;14.14;43.19
27958;BME280;15295;42.658;23.374;2024-02-21T08:31:39;95257.13;;;14.26;42.70
27958;BME280;15295;42.658;23.374;2024-02-21T08:34:05;95260.13;;;14.46;42.78
27958;BME280;15295;42.658;23.374;2024-02-21T08:36:31;95249.69;;;14.71;42.32
27958;BME280;15295;42.658;23.374;2024-02-21T08:38:57;95254.84;;;15.06;41.67
27958;BME280;15295;42.658;23.374;2024-02-21T08:41:24;95247.38;;;15.07;40.89
27958;BME280;15295;42.658;23.374;2024-02-21T08:43:54;95257.53;;;15.13;40.69
27958;BME280;15295;42.658;23.374;2024-02-21T08:46:25;95244.50;;;15.17;40.31
27958;BME280;15295;42.658;23.374;2024-02-21T08:48:52;95259.63;;;15.36;40.15
27958;BME280;15295;42.658;23.374;2024-02-21T08:51:20;95263.78;;;15.51;39.86
27958;BME280;15295;42.658;23.374;2024-02-21T08:53:46;95260.50;;;15.63;39.77
27958;BME280;15295;42.658;23.374;2024-02-21T08:56:12;95257.19;;;15.75;39.09
27958;BME280;15295;42.658;23.374;2024-02-21T08:58:39;95258.97;;;15.89;38.97
27958;BME280;15295;42.658;23.374;2024-02-21T09:01:05;95255.47;;;15.85;39.00
27958;BME280;15295;42.658;23.374;2024-02-21T09:03:32;95248.69;;;15.93;38.49
27958;BME280;15295;42.658;23.374;2024-02-21T09:05:58;95253.22;;;16.06;38.06
27958;BME280;15295;42.658;23.374;2024-02-21T09:08:24;95246.16;;;16.05;38.30
27958;BME280;15295;42.658;23.374;2024-02-21T09:10:50;95256.75;;;16.07;38.12
27958;BME280;15295;42.658;23.374;2024-02-21T09:13:16;95265.84;;;16.04;38.13
27958;BME280;15295;42.658;23.374;2024-02-21T09:15:42;95254.59;;;15.91;38.20
27958;BME280;15295;42.658;23.374;2024-02-21T09:18:08;95242.63;;;15.75;38.62
27958;BME280;15295;42.658;23.374;2024-02-21T09:20:33;95260.97;;;15.88;38.64
27958;BME280;15295;42.658;23.374;2024-02-21T09:23:01;95259.72;;;15.93;38.03
27958;BME280;15295;42.658;23.374;2024-02-21T09:25:27;95239.00;;;15.81;38.41
27958;BME280;15295;42.658;23.374;2024-02-21T09:27:54;95258.16;;;15.92;38.09
27958;BME280;15295;42.658;23.374;2024-02-21T09:30:20;95253.97;;;15.80;38.39
27958;BME280;15295;42.658;23.374;2024-02-21T09:32:46;95248.38;;;15.87;38.63
27958;BME280;15295;42.658;23.374;2024-02-21T09:35:12;95248.59;;;16.00;38.54
27958;BME280;15295;42.658;23.374;2024-02-21T09:37:39;95243.44;;;16.02;38.25
27958;BME280;15295;42.658;23.374;2024-02-21T09:40:05;95251.91;;;16.14;38.01
27958;BME280;15295;42.658;23.374;2024-02-21T09:42:41;95262.53;;;16.16;37.84
27958;BME280;15295;42.658;23.374;2024-02-21T09:45:25;95255.16;;;16.09;37.99
27958;BME280;15295;42.658;23.374;2024-02-21T09:48:27;95266.81;;;16.20;38.15
27958;BME280;15295;42.658;23.374;2024-02-21T09:50:54;95267.28;;;16.15;38.21
27958;BME280;15295;42.658;23.374;2024-02-21T09:53:24;95256.06;;;16.26;38.31
27958;BME280;15295;42.658;23.374;2024-02-21T09:55:50;95259.81;;;16.39;38.00
27958;BME280;15295;42.658;23.374;2024-02-21T09:58:16;95257.31;;;16.48;37.80
27958;BME280;15295;42.658;23.374;2024-02-21T10:00:42;95256.34;;;16.35;37.62
27958;BME280;15295;42.658;23.374;2024-02-21T10:03:07;95246.81;;;16.40;37.76
27958;BME280;15295;42.658;23.374;2024-02-21T10:05:37;95254.97;;;16.47;37.38
27958;BME280;15295;42.658;23.374;2024-02-21T10:08:04;95248.31;;;16.44;37.18
27958;BME280;15295;42.658;23.374;2024-02-21T10:10:29;95250.50;;;16.56;37.33
27958;BME280;15295;42.658;23.374;2024-02-21T10:12:56;95249.78;;;16.75;37.29
27958;BME280;15295;42.658;23.374;2024-02-21T10:15:24;95238.75;;;16.75;36.14
27958;BME280;15295;42.658;23.374;2024-02-21T10:17:57;95230.19;;;16.70;35.79
27958;BME280;15295;42.658;23.374;2024-02-21T10:20:23;95238.28;;;16.80;35.74
27958;BME280;15295;42.658;23.374;2024-02-21T10:22:48;95228.25;;;16.67;35.54
27958;BME280;15295;42.658;23.374;2024-02-21T10:25:14;95237.34;;;16.64;35.64
27958;BME280;15295;42.658;23.374;2024-02-21T10:27:39;95231.13;;;16.60;35.35
27958;BME280;15295;42.658;23.374;2024-02-21T10:30:07;95229.34;;;16.50;35.82
27958;BME280;15295;42.658;23.374;2024-02-21T10:32:33;95216.03;;;16.41;36.16
27958;BME280;15295;42.658;23.374;2024-02-21T10:35:03;95213.22;;;16.45;36.22
27958;BME280;15295;42.658;23.374;2024-02-21T10:37:30;95207.41;;;16.39;36.05
27958;BME280;15295;42.658;23.374;2024-02-21T10:39:56;95208.56;;;16.42;35.90
27958;BME280;15295;42.658;23.374;2024-02-21T10:42:22;95195.56;;;16.42;34.49
27958;BME280;15295;42.658;23.374;2024-02-21T10:44:51;95201.56;;;16.60;34.45
27958;BME280;15295;42.658;23.374;2024-02-21T10:47:17;95193.84;;;16.94;34.50
27958;BME280;15295;42.658;23.374;2024-02-21T10:49:50;95194.91;;;17.20;34.14
27958;BME280;15295;42.658;23.374;2024-02-21T10:52:37;95180.25;;;17.43;33.85
27958;BME280;15295;42.658;23.374;2024-02-21T10:55:10;95176.66;;;17.65;33.63
27958;BME280;15295;42.658;23.374;2024-02-21T10:57:40;95176.88;;;17.55;33.12
27958;BME280;15295;42.658;23.374;2024-02-21T11:00:06;95176.09;;;17.54;32.92
27958;BME280;15295;42.658;23.374;2024-02-21T11:02:35;95159.63;;;17.67;33.00
27958;BME280;15295;42.658;23.374;2024-02-21T11:05:02;95160.38;;;17.87;32.96
27958;BME280;15295;42.658;23.374;2024-02-21T11:07:29;95160.66;;;18.09;32.74
27958;BME280;15295;42.658;23.374;2024-02-21T11:09:57;95159.19;;;18.36;32.04
27958;BME280;15295;42.658;23.374;2024-02-21T11:12:25;95147.09;;;18.46;31.81
27958;BME280;15295;42.658;23.374;2024-02-21T11:14:52;95144.66;;;18.48;31.54
27958;BME280;15295;42.658;23.374;2024-02-21T11:17:19;95154.34;;;18.57;31.52
27958;BME280;15295;42.658;23.374;2024-02-21T11:19:45;95146.47;;;19.00;31.69
27958;BME280;15295;42.658;23.374;2024-02-21T11:22:18;95155.25;;;19.11;30.67
27958;BME280;15295;42.658;23.374;2024-02-21T11:24:44;95150.66;;;18.92;30.26
27958;BME280;15295;42.658;23.374;2024-02-21T11:29:49;95146.53;;;18.68;30.55
27958;BME280;15295;42.658;23.374;2024-02-21T11:32:19;95148.56;;;18.51;29.43
27958;BME280;15295;42.658;23.374;2024-02-21T11:37:20;95138.91;;;18.72;28.89
27958;BME280;15295;42.658;23.374;2024-02-21T11:39:46;95134.78;;;18.64;28.94
27958;BME280;15295;42.658;23.374;2024-02-21T11:42:11;95137.03;;;18.53;29.25
27958;BME280;15295;42.658;23.374;2024-02-21T11:44:39;95138.00;;;18.46;29.67
27958;BME280;15295;42.658;23.374;2024-02-21T11:47:06;95117.91;;;18.42;29.31
27958;BME280;15295;42.658;23.374;2024-02-21T11:49:38;95134.44;;;18.45;29.54
27958;BME280;15295;42.658;23.374;2024-02-21T11:52:05;95127.53;;;18.21;29.96
27958;BME280;15295;42.658;23.374;2024-02-21T11:54:31;95123.63;;;18.03;30.23
27958;BME280;15295;42.658;23.374;2024-02-21T11:56:57;95122.84;;;17.86;30.64
27958;BME280;15295;42.658;23.374;2024-02-21T11:59:22;95121.28;;;17.69;30.71
27958;BME280;15295;42.658;23.374;2024-02-21T12:01:48;95116.19;;;17.48;31.07
27958;BME280;15295;42.658;23.374;2024-02-21T12:04:15;95103.41;;;17.38;31.22
27958;BME280;15295;42.658;23.374;2024-02-21T12:06:45;95115.59;;;17.40;31.08
27958;BME280;15295;42.658;23.374;2024-02-21T12:09:14;95122.63;;;17.25;31.23
27958;BME280;15295;42.658;23.374;2024-02-21T12:11:42;95116.63;;;17.11;31.25
27958;BME280;15295;42.658;23.374;2024-02-21T12:14:08;95108.94;;;16.98;31.62
27958;BME280;15295;42.658;23.374;2024-02-21T12:16:34;95102.28;;;16.96;31.97
27958;BME280;15295;42.658;23.374;2024-02-21T12:19:01;95105.41;;;16.98;31.79
27958;BME280;15295;42.658;23.374;2024-02-21T12:21:33;95099.19;;;16.94;32.14
27958;BME280;15295;42.658;23.374;2024-02-21T12:24:00;95103.22;;;16.89;32.18
27958;BME280;15295;42.658;23.374;2024-02-21T12:26:25;95088.13;;;16.74;32.34
27958;BME280;15295;42.658;23.374;2024-02-21T12:28:53;95091.19;;;16.80;32.52
27958;BME280;15295;42.658;23.374;2024-02-21T12:31:18;95083.84;;;16.73;32.67
27958;BME280;15295;42.658;23.374;2024-02-21T12:33:44;95094.66;;;16.64;33.00
27958;BME280;15295;42.658;23.374;2024-02-21T12:36:09;95097.41;;;16.64;33.10
27958;BME280;15295;42.658;23.374;2024-02-21T12:38:36;95090.03;;;16.58;33.38
27958;BME280;15295;42.658;23.374;2024-02-21T12:41:02;95083.00;;;16.34;33.20
27958;BME280;15295;42.658;23.374;2024-02-21T12:43:28;95077.66;;;16.23;33.28
27958;BME280;15295;42.658;23.374;2024-02-21T12:45:56;95088.81;;;16.16;33.15
27958;BME280;15295;42.658;23.374;2024-02-21T12:48:21;95080.03;;;16.01;33.51
27958;BME280;15295;42.658;23.374;2024-02-21T12:50:49;95088.66;;;16.03;33.79
27958;BME280;15295;42.658;23.374;2024-02-21T12:53:18;95071.19;;;15.87;33.88